Time;durP1;ratioP1;P1;durP2;ratioP2;P2;SDS_P1;SDS_P2;PMS_P1;PMS_P2;Temp;Humidity;BMP_temperature;BMP_pressure;BME280_temperature;BME280_humidity;BME280_pressure;Samples;Min_cycle;Max_cycle;Signal;HPM_P1;HPM_P2
2022/06/18 00:00:13;;;;;;;6.22;4.40;;;20.70;92.10;;;;;;5055089;28;20037;-64
2022/06/18 00:02:43;;;;;;;7.53;5.00;;;20.60;92.10;;;;;;5052097;28;20037;-64
2022/06/18 00:05:11;;;;;;;8.82;4.90;;;20.60;92.20;;;;;;5078917;28;20040;-65
2022/06/18 00:07:40;;;;;;;7.45;4.72;;;20.60;92.30;;;;;;5047764;28;20044;-64
2022/06/18 00:10:11;;;;;;;8.95;4.85;;;20.60;92.50;;;;;;5060288;28;20052;-64
2022/06/18 00:15:33;;;;;;;5.75;4.50;;;20.50;92.60;;;;;;5065259;28;20491;-65
2022/06/18 00:18:00;;;;;;;7.18;5.13;;;20.50;92.80;;;;;;5060922;28;20044;-65
2022/06/18 00:20:29;;;;;;;8.77;4.82;;;20.50;92.80;;;;;;5068272;28;20082;-64
2022/06/18 00:22:57;;;;;;;9.45;5.00;;;20.50;92.90;;;;;;5048870;28;20037;-66
2022/06/18 00:25:34;;;;;;;6.57;4.78;;;20.50;92.90;;;;;;5078015;28;20032;-65
2022/06/18 00:28:02;;;;;;;7.35;4.55;;;20.50;92.90;;;;;;5051005;28;20406;-64
2022/06/18 00:30:30;;;;;;;6.68;4.75;;;20.50;92.90;;;;;;5064979;28;20123;-64
2022/06/18 00:32:56;;;;;;;7.53;5.05;;;20.50;93.00;;;;;;5052118;28;20037;-65
2022/06/18 00:35:22;;;;;;;10.13;4.80;;;20.50;93.10;;;;;;5064324;28;20037;-64
2022/06/18 00:37:57;;;;;;;8.32;5.20;;;20.50;93.00;;;;;;5058805;28;20033;-64
2022/06/18 00:40:27;;;;;;;7.55;5.13;;;20.50;93.20;;;;;;5057662;28;20529;-64
2022/06/18 00:42:54;;;;;;;9.07;5.47;;;20.50;93.20;;;;;;5066639;28;20041;-64
2022/06/18 00:45:26;;;;;;;10.52;5.43;;;20.50;93.20;;;;;;5062691;28;20032;-64
2022/06/18 00:48:24;;;;;;;;;;;20.40;93.50;;;;;;5063787;28;20036;-64
2022/06/18 00:50:54;;;;;;;8.95;5.70;;;20.40;93.90;;;;;;5034609;28;20295;-65
2022/06/18 00:53:42;;;;;;;9.80;6.35;;;20.40;93.70;;;;;;5058539;28;20403;-66
2022/06/18 00:56:32;;;;;;;7.88;5.75;;;20.30;93.90;;;;;;5059676;28;20116;-65
2022/06/18 00:59:04;;;;;;;8.98;5.60;;;20.30;94.00;;;;;;5058825;28;20033;-64
2022/06/18 01:01:37;;;;;;;;;;;20.30;94.00;;;;;;5057879;28;20527;-64
2022/06/18 01:04:22;;;;;;;10.68;5.55;;;20.30;94.50;;;;;;5068190;28;19917;-64
2022/06/18 01:06:48;;;;;;;10.38;5.55;;;20.20;94.30;;;;;;5054498;28;20411;-63
2022/06/18 01:09:16;;;;;;;6.50;5.60;;;20.20;94.30;;;;;;5062896;28;20040;-63
2022/06/18 01:11:46;;;;;;;11.23;6.13;;;20.20;94.40;;;;;;5059936;28;20049;-64
2022/06/18 01:14:14;;;;;;;11.68;6.80;;;20.20;94.60;;;;;;5062030;28;20419;-63
2022/06/18 01:16:40;;;;;;;10.88;6.15;;;20.20;94.70;;;;;;5057060;28;20040;-68
2022/06/18 01:19:15;;;;;;;8.50;6.20;;;20.10;94.80;;;;;;5060517;28;20043;-64
2022/06/18 01:22:00;;;;;;;10.85;6.30;;;20.10;94.90;;;;;;5049081;28;20081;-63
2022/06/18 01:24:38;;;;;;;11.02;5.82;;;20.10;95.10;;;;;;5043597;28;20032;-63
2022/06/18 01:27:05;;;;;;;10.63;6.70;;;20.10;95.10;;;;;;5057397;28;20036;-63
2022/06/18 01:29:31;;;;;;;9.07;6.38;;;20.00;95.20;;;;;;5041854;28;20384;-63
2022/06/18 01:31:57;;;;;;;12.43;6.38;;;20.00;95.30;;;;;;5046357;28;20047;-64
2022/06/18 01:34:23;;;;;;;11.63;7.22;;;20.00;95.40;;;;;;5054211;28;20082;-63
2022/06/18 01:36:51;;;;;;;8.65;6.72;;;20.00;95.50;;;;;;5058762;28;20487;-64
2022/06/18 01:39:25;;;;;;;10.57;7.10;;;19.90;95.60;;;;;;5044962;28;20052;-65
2022/06/18 01:41:56;;;;;;;9.05;6.55;;;19.90;95.80;;;;;;5057545;28;20040;-65
2022/06/18 01:44:31;;;;;;;8.87;6.57;;;19.90;95.80;;;;;;5049192;28;20036;-63
2022/06/18 01:47:03;;;;;;;10.95;6.90;;;19.90;95.80;;;;;;5054892;28;20044;-66
2022/06/18 01:49:36;;;;;;;11.40;7.15;;;19.90;95.90;;;;;;5051041;28;20411;-63
2022/06/18 01:52:05;;;;;;;11.27;7.10;;;19.90;96.20;;;;;;5057131;28;20037;-64
2022/06/18 01:54:54;;;;;;;11.90;6.72;;;19.80;96.10;;;;;;5060056;28;20036;-63
2022/06/18 01:57:30;;;;;;;10.55;7.03;;;19.80;96.10;;;;;;5051511;28;20052;-64
2022/06/18 02:00:04;;;;;;;12.00;6.88;;;19.80;96.20;;;;;;5060812;28;20067;-64
2022/06/18 02:02:30;;;;;;;11.00;7.45;;;19.80;96.20;;;;;;5052839;28;20037;-63
2022/06/18 02:04:55;;;;;;;10.25;6.55;;;19.80;96.30;;;;;;5057087;28;20445;-68
2022/06/18 02:07:21;;;;;;;11.48;7.40;;;19.80;96.30;;;;;;5055004;28;20451;-64
2022/06/18 02:09:57;;;;;;;13.57;7.45;;;19.80;96.40;;;;;;5053657;28;20503;-63
2022/06/18 02:12:30;;;;;;;9.07;6.60;;;19.80;96.50;;;;;;5047088;28;20503;-63
2022/06/18 02:15:02;;;;;;;10.98;7.57;;;19.80;96.60;;;;;;5054074;28;20108;-66
2022/06/18 02:17:28;;;;;;;9.50;6.93;;;19.80;96.60;;;;;;5043360;28;20507;-63
2022/06/18 02:20:07;;;;;;;13.15;7.38;;;19.80;96.70;;;;;;5058637;28;20044;-66
2022/06/18 02:22:40;;;;;;;11.38;7.85;;;19.70;96.70;;;;;;5055196;28;20395;-63
2022/06/18 02:25:06;;;;;;;10.32;7.25;;;19.70;96.80;;;;;;5066491;28;20108;-63
2022/06/18 02:27:33;;;;;;;11.65;7.22;;;19.70;96.90;;;;;;5050298;28;20726;-64
2022/06/18 02:29:58;;;;;;;12.13;7.50;;;19.70;96.90;;;;;;5049839;28;20051;-64
2022/06/18 02:32:34;;;;;;;11.30;7.65;;;19.70;97.00;;;;;;5049522;28;20120;-68
2022/06/18 02:34:59;;;;;;;9.75;7.25;;;19.70;97.10;;;;;;5048272;28;20041;-63
2022/06/18 02:37:28;;;;;;;10.15;7.38;;;19.70;97.20;;;;;;5052751;28;20060;-63
2022/06/18 02:40:03;;;;;;;10.18;7.00;;;19.70;97.30;;;;;;5060994;28;20527;-63
2022/06/18 02:42:32;;;;;;;13.35;7.72;;;19.60;97.40;;;;;;5058675;28;20376;-63
2022/06/18 02:45:01;;;;;;;11.50;8.20;;;19.60;97.40;;;;;;5054102;28;20033;-64
2022/06/18 02:47:27;;;;;;;12.80;8.15;;;19.60;97.50;;;;;;5062237;28;20076;-65
2022/06/18 02:50:05;;;;;;;9.68;8.20;;;19.60;97.60;;;;;;5055213;28;20081;-67
2022/06/18 02:52:35;;;;;;;11.65;8.23;;;19.60;97.70;;;;;;5052838;28;20123;-63
2022/06/18 02:55:34;;;;;;;13.45;9.05;;;19.50;97.80;;;;;;5054082;28;20041;-63
2022/06/18 02:58:12;;;;;;;11.40;9.20;;;19.50;97.90;;;;;;5051051;28;20049;-64
2022/06/18 03:00:41;;;;;;;12.38;8.15;;;19.50;98.00;;;;;;5059941;28;20046;-63
2022/06/18 03:03:12;;;;;;;11.25;8.60;;;19.40;98.10;;;;;;5062779;28;20049;-67
2022/06/18 03:05:38;;;;;;;14.45;9.43;;;19.40;98.20;;;;;;5057320;28;20028;-63
2022/06/18 03:08:04;;;;;;;11.00;8.75;;;19.30;98.30;;;;;;5060710;28;20381;-63
2022/06/18 03:13:18;;;;;;;16.27;9.50;;;19.30;98.50;;;;;;5066132;28;20419;-69
2022/06/18 03:15:45;;;;;;;14.18;9.45;;;19.30;98.70;;;;;;5048725;28;20385;-64
2022/06/18 03:18:11;;;;;;;11.05;9.38;;;19.30;98.80;;;;;;5061601;28;20051;-64
2022/06/18 03:21:02;;;;;;;14.48;10.20;;;19.20;99.00;;;;;;5064034;28;20045;-63
2022/06/18 03:23:28;;;;;;;16.42;10.27;;;19.20;99.20;;;;;;5098551;28;20041;-69
2022/06/18 03:25:54;;;;;;;17.38;9.95;;;19.20;99.30;;;;;;5063438;28;20118;-66
2022/06/18 03:28:22;;;;;;;12.82;10.48;;;19.20;99.50;;;;;;5061591;28;20044;-67
2022/06/18 03:30:48;;;;;;;12.07;9.40;;;19.20;99.70;;;;;;5053029;28;20095;-66
2022/06/18 03:33:14;;;;;;;13.73;9.85;;;19.20;99.90;;;;;;5062271;28;20041;-63
2022/06/18 03:35:43;;;;;;;12.35;9.98;;;19.20;99.90;;;;;;5062495;28;20044;-63
2022/06/18 03:38:10;;;;;;;12.68;9.82;;;19.30;99.90;;;;;;5052482;28;20056;-63
2022/06/18 03:40:36;;;;;;;11.18;9.32;;;19.30;99.90;;;;;;5051601;28;20083;-63
2022/06/18 03:43:01;;;;;;;15.65;9.13;;;19.30;99.90;;;;;;5063332;28;20543;-64
2022/06/18 03:45:30;;;;;;;14.48;9.65;;;19.30;99.90;;;;;;5059781;28;20121;-64
2022/06/18 03:47:56;;;;;;;11.32;9.70;;;19.30;99.90;;;;;;5063189;28;20487;-64
2022/06/18 03:50:22;;;;;;;13.15;9.45;;;19.30;99.90;;;;;;5065511;28;20036;-67
2022/06/18 03:52:49;;;;;;;13.50;10.30;;;19.30;99.90;;;;;;5063356;28;20041;-63
2022/06/18 03:55:16;;;;;;;14.32;10.07;;;19.30;99.90;;;;;;5096446;28;20127;-64
2022/06/18 03:57:42;;;;;;;15.38;10.30;;;19.30;99.90;;;;;;5055006;28;20309;-63
2022/06/18 04:00:15;;;;;;;13.00;10.60;;;19.30;99.90;;;;;;5054748;28;20045;-63
2022/06/18 04:02:40;;;;;;;13.80;10.30;;;19.30;99.90;;;;;;5060999;28;20041;-66
2022/06/18 04:05:08;;;;;;;17.35;10.18;;;19.30;99.90;;;;;;5057170;28;20048;-64
2022/06/18 04:07:33;;;;;;;16.35;10.15;;;19.30;99.90;;;;;;5065070;28;20463;-65
2022/06/18 04:10:01;;;;;;;14.75;10.95;;;19.30;99.90;;;;;;5063684;28;20520;-65
2022/06/18 04:12:27;;;;;;;12.27;9.82;;;19.30;99.90;;;;;;5062495;28;20112;-65
2022/06/18 04:14:54;;;;;;;13.75;10.32;;;19.30;99.90;;;;;;5056545;28;20102;-65
2022/06/18 04:17:20;;;;;;;14.70;10.35;;;19.40;99.90;;;;;;5052673;28;20039;-65
2022/06/18 04:19:46;;;;;;;12.02;10.52;;;19.40;99.90;;;;;;5059582;28;20419;-65
2022/06/18 04:22:12;;;;;;;15.63;10.75;;;19.40;99.90;;;;;;5055435;28;20038;-65
2022/06/18 04:24:37;;;;;;;12.40;10.60;;;19.40;99.90;;;;;;5058463;28;20033;-65
2022/06/18 04:27:04;;;;;;;20.77;11.48;;;19.40;99.90;;;;;;5059245;28;20044;-65
2022/06/18 04:29:31;;;;;;;19.83;11.23;;;19.40;99.90;;;;;;5063890;28;20049;-65
2022/06/18 04:31:57;;;;;;;15.98;10.63;;;19.50;99.90;;;;;;5061633;28;20120;-65
2022/06/18 04:34:22;;;;;;;18.48;11.02;;;19.50;99.90;;;;;;5053114;28;20051;-64
2022/06/18 04:36:48;;;;;;;15.95;10.02;;;19.50;99.90;;;;;;5055576;28;20566;-65
2022/06/18 04:39:14;;;;;;;15.82;10.68;;;19.50;99.90;;;;;;5054530;28;20041;-65
2022/06/18 04:41:40;;;;;;;15.48;11.18;;;19.50;99.90;;;;;;5050485;28;20454;-64
2022/06/18 04:44:06;;;;;;;16.77;10.95;;;19.60;99.90;;;;;;5053877;28;20041;-65
2022/06/18 04:46:32;;;;;;;19.58;11.52;;;19.50;99.90;;;;;;5051392;28;20037;-65
2022/06/18 04:48:58;;;;;;;20.70;10.88;;;19.50;99.90;;;;;;5051088;28;20083;-65
2022/06/18 04:51:23;;;;;;;17.90;11.07;;;19.60;99.90;;;;;;5052653;28;20072;-65
2022/06/18 04:53:49;;;;;;;17.40;10.50;;;19.50;99.90;;;;;;5051612;28;20687;-65
2022/06/18 04:56:15;;;;;;;19.85;11.27;;;19.60;99.90;;;;;;5057497;28;20544;-65
2022/06/18 04:58:41;;;;;;;19.50;11.82;;;19.60;99.90;;;;;;5063242;28;20040;-65
2022/06/18 05:01:07;;;;;;;21.98;12.25;;;19.60;99.90;;;;;;5060517;28;20098;-65
2022/06/18 05:03:33;;;;;;;17.42;11.13;;;19.60;99.90;;;;;;5056549;28;20445;-65
2022/06/18 05:05:59;;;;;;;16.77;11.80;;;19.60;99.90;;;;;;5055003;28;20055;-65
2022/06/18 05:08:25;;;;;;;17.50;11.50;;;19.60;99.90;;;;;;5049644;28;20116;-65
2022/06/18 05:10:52;;;;;;;20.60;12.30;;;19.60;99.90;;;;;;5054287;28;20399;-65
2022/06/18 05:13:18;;;;;;;21.35;12.73;;;19.70;99.90;;;;;;5047852;28;20056;-65
2022/06/18 05:15:45;;;;;;;21.73;12.20;;;19.60;99.90;;;;;;5053988;28;20038;-65
2022/06/18 05:18:13;;;;;;;20.10;12.55;;;19.70;99.90;;;;;;5058128;28;20095;-65
2022/06/18 05:20:39;;;;;;;22.42;12.25;;;19.70;99.90;;;;;;5052724;28;20041;-65
2022/06/18 05:23:05;;;;;;;21.55;12.23;;;19.70;99.90;;;;;;5058017;28;20045;-65
2022/06/18 05:25:30;;;;;;;26.13;13.40;;;19.70;99.90;;;;;;5055301;28;20423;-65
2022/06/18 05:27:56;;;;;;;19.70;13.32;;;19.70;99.90;;;;;;5050179;28;20490;-65
2022/06/18 05:30:25;;;;;;;22.73;13.50;;;19.80;99.90;;;;;;5049439;28;20074;-65
2022/06/18 05:32:51;;;;;;;21.48;12.65;;;19.80;99.90;;;;;;5050960;28;20120;-65
2022/06/18 05:35:17;;;;;;;28.33;14.38;;;19.80;99.90;;;;;;5060146;28;20114;-65
2022/06/18 05:37:43;;;;;;;20.10;13.13;;;19.80;99.90;;;;;;5052886;28;20057;-65
2022/06/18 05:40:11;;;;;;;24.08;12.60;;;19.80;99.90;;;;;;5065388;28;20037;-65
2022/06/18 05:42:37;;;;;;;21.60;13.07;;;19.80;99.90;;;;;;5052122;28;20036;-65
2022/06/18 05:45:04;;;;;;;20.73;13.45;;;19.80;99.90;;;;;;5050272;28;20455;-65
2022/06/18 05:47:32;;;;;;;23.55;13.63;;;19.80;99.90;;;;;;5052640;28;20039;-65
2022/06/18 05:49:59;;;;;;;24.33;13.15;;;19.90;99.90;;;;;;5058860;28;20497;-65
2022/06/18 05:52:27;;;;;;;23.33;13.70;;;19.90;99.90;;;;;;5041560;28;20124;-65
2022/06/18 05:54:53;;;;;;;23.67;15.05;;;19.90;99.90;;;;;;5042593;28;20095;-65
2022/06/18 05:57:19;;;;;;;23.33;13.90;;;19.90;99.90;;;;;;5046012;28;20041;-65
2022/06/18 05:59:45;;;;;;;24.38;14.10;;;19.90;99.90;;;;;;5049270;28;20067;-65
2022/06/18 06:02:13;;;;;;;25.50;15.20;;;19.90;99.90;;;;;;5058510;28;20037;-65
2022/06/18 06:04:39;;;;;;;25.63;13.90;;;20.00;99.90;;;;;;5048785;28;20040;-65
2022/06/18 06:07:16;;;;;;;22.48;14.45;;;20.00;99.90;;;;;;5051634;28;20045;-65
2022/06/18 06:12:25;;;;;;;21.52;13.50;;;20.10;99.90;;;;;;5051271;28;20045;-65
2022/06/18 06:14:51;;;;;;;23.05;13.43;;;20.10;99.90;;;;;;5061172;28;20089;-65
2022/06/18 06:17:22;;;;;;;26.40;14.63;;;20.10;99.90;;;;;;5047731;28;20073;-65
2022/06/18 06:19:48;;;;;;;26.05;14.18;;;20.20;99.90;;;;;;5044973;28;20084;-65
2022/06/18 06:22:13;;;;;;;21.25;14.48;;;20.20;99.90;;;;;;5054353;28;20400;-65
2022/06/18 06:24:39;;;;;;;23.15;13.43;;;20.20;99.90;;;;;;5047415;28;20030;-65
2022/06/18 06:27:05;;;;;;;21.98;12.95;;;20.20;99.90;;;;;;5051519;28;20443;-65
2022/06/18 06:29:31;;;;;;;20.23;12.93;;;20.20;99.90;;;;;;5050361;28;20070;-65
2022/06/18 06:31:57;;;;;;;22.85;13.95;;;20.30;99.90;;;;;;5043825;28;20415;-65
2022/06/18 06:34:22;;;;;;;23.73;13.35;;;20.30;99.90;;;;;;5053042;28;20033;-65
2022/06/18 06:36:48;;;;;;;26.67;14.20;;;20.30;99.90;;;;;;5047112;28;20037;-65
2022/06/18 06:39:14;;;;;;;20.25;12.73;;;20.40;99.90;;;;;;5050794;28;20494;-65
2022/06/18 06:41:40;;;;;;;18.83;11.93;;;20.40;99.90;;;;;;5054522;28;20037;-65
2022/06/18 06:44:06;;;;;;;20.45;12.50;;;20.40;99.90;;;;;;5048058;28;20514;-65
2022/06/18 06:46:31;;;;;;;23.27;12.48;;;20.50;99.90;;;;;;5053126;28;20049;-65
2022/06/18 06:48:58;;;;;;;21.10;10.60;;;20.50;99.90;;;;;;5049543;28;20509;-65
2022/06/18 06:51:27;;;;;;;18.80;10.40;;;20.50;99.90;;;;;;5045400;28;20533;-64
2022/06/18 06:53:52;;;;;;;21.55;11.85;;;20.60;99.90;;;;;;5048377;28;20132;-64
2022/06/18 06:59:05;;;;;;;21.83;10.02;;;20.60;99.90;;;;;;5042941;28;20057;-64
2022/06/18 07:01:31;;;;;;;17.27;10.95;;;20.60;99.90;;;;;;5048536;28;20159;-69
2022/06/18 07:03:57;;;;;;;16.10;9.43;;;20.70;99.90;;;;;;5049790;28;20044;-64
2022/06/18 07:06:23;;;;;;;17.83;10.25;;;20.80;99.90;;;;;;5041363;28;20029;-64
2022/06/18 07:08:49;;;;;;;20.08;10.15;;;20.80;99.90;;;;;;5051293;28;20102;-64
2022/06/18 07:11:15;;;;;;;21.98;10.80;;;20.80;99.90;;;;;;5054036;28;20055;-64
2022/06/18 07:13:41;;;;;;;19.05;9.50;;;20.90;99.90;;;;;;5051737;28;20037;-64
2022/06/18 07:16:10;;;;;;;14.63;9.35;;;20.90;99.90;;;;;;5047251;28;20033;-64
2022/06/18 07:18:36;;;;;;;17.67;9.63;;;20.90;99.90;;;;;;5047448;28;20102;-65
2022/06/18 07:21:05;;;;;;;16.08;9.52;;;21.00;99.90;;;;;;5046962;28;20037;-65
2022/06/18 07:23:31;;;;;;;19.60;9.32;;;21.00;99.90;;;;;;5054863;28;20032;-65
2022/06/18 07:25:57;;;;;;;17.90;9.65;;;21.10;99.90;;;;;;5045286;28;20055;-64
2022/06/18 07:28:23;;;;;;;15.55;8.90;;;21.10;99.90;;;;;;5055887;28;20123;-65
2022/06/18 07:30:49;;;;;;;22.00;10.20;;;21.10;99.90;;;;;;5058795;28;20037;-66
2022/06/18 07:33:19;;;;;;;18.17;8.70;;;21.10;99.90;;;;;;5051767;28;20124;-66
2022/06/18 07:35:45;;;;;;;20.70;9.20;;;21.20;99.90;;;;;;5047863;28;20044;-66
2022/06/18 07:38:10;;;;;;;16.30;8.82;;;21.20;99.90;;;;;;5054691;28;20029;-65
2022/06/18 07:41:04;;;;;;;16.67;7.75;;;21.20;99.90;;;;;;5053963;28;20036;-64
2022/06/18 07:43:43;;;;;;;17.25;8.43;;;21.30;99.90;;;;;;5046598;28;20040;-66
2022/06/18 07:46:12;;;;;;;19.02;9.82;;;21.30;99.90;;;;;;5049690;28;20087;-64
2022/06/18 07:48:43;;;;;;;21.38;10.55;;;21.30;99.90;;;;;;5057479;28;20033;-65
2022/06/18 07:51:10;;;;;;;15.25;8.77;;;21.30;99.90;;;;;;5046205;28;20396;-65
2022/06/18 07:53:35;;;;;;;14.27;8.70;;;21.30;99.90;;;;;;5037960;28;20395;-66
2022/06/18 07:56:02;;;;;;;16.70;8.57;;;21.40;99.90;;;;;;5053751;28;20036;-65
2022/06/18 07:58:28;;;;;;;14.38;7.97;;;21.40;99.90;;;;;;5053816;28;20549;-67
2022/06/18 08:00:55;;;;;;;18.65;8.38;;;21.50;99.90;;;;;;5045419;28;20504;-66
2022/06/18 08:03:21;;;;;;;13.75;7.78;;;21.60;99.90;;;;;;5048316;28;20090;-65
2022/06/18 08:05:47;;;;;;;16.75;6.53;;;21.60;99.90;;;;;;5054378;28;20098;-65
2022/06/18 08:08:14;;;;;;;11.98;6.35;;;21.70;99.90;;;;;;5053661;28;20040;-65
2022/06/18 08:10:42;;;;;;;11.40;6.22;;;21.80;99.90;;;;;;5049540;28;20401;-63
2022/06/18 08:13:08;;;;;;;23.10;6.07;;;21.90;99.90;;;;;;5069594;28;20402;-65
2022/06/18 08:15:34;;;;;;;12.23;6.00;;;22.00;99.90;;;;;;5051737;28;20041;-65
2022/06/18 08:18:00;;;;;;;12.13;6.63;;;22.10;99.90;;;;;;5046955;28;20047;-66
2022/06/18 08:20:26;;;;;;;12.55;5.80;;;22.30;99.90;;;;;;5056599;28;20087;-65
2022/06/18 08:22:55;;;;;;;12.85;5.90;;;22.50;99.90;;;;;;5049101;28;20116;-65
2022/06/18 08:25:23;;;;;;;10.35;5.78;;;22.70;99.90;;;;;;5048381;28;21392;-63
2022/06/18 08:27:50;;;;;;;13.20;5.30;;;22.90;99.90;;;;;;5048645;28;20095;-66
2022/06/18 08:30:17;;;;;;;13.27;5.90;;;23.00;99.90;;;;;;5057565;28;20471;-65
2022/06/18 08:32:44;;;;;;;11.98;5.63;;;23.20;99.90;;;;;;5055926;28;20127;-65
2022/06/18 08:35:10;;;;;;;12.15;5.43;;;23.40;99.90;;;;;;5051129;28;20138;-66
2022/06/18 08:37:36;;;;;;;11.85;5.40;;;23.70;99.90;;;;;;5057579;28;20499;-65
2022/06/18 08:40:34;;;;;;;14.02;5.25;;;23.90;99.90;;;;;;5050803;28;20060;-65
2022/06/18 08:43:20;;;;;;;12.13;4.88;;;24.10;99.90;;;;;;5047939;28;20044;-65
2022/06/18 08:45:58;;;;;;;9.90;4.35;;;24.30;99.90;;;;;;5043461;28;20531;-65
2022/06/18 08:48:41;;;;;;;10.10;4.13;;;24.50;99.70;;;;;;5045888;28;20029;-64
2022/06/18 08:51:26;;;;;;;11.35;5.13;;;24.70;98.60;;;;;;5046795;28;20057;-64
2022/06/18 08:54:10;;;;;;;10.20;5.00;;;24.90;99.30;;;;;;5042859;28;20049;-63
2022/06/18 08:56:45;;;;;;;10.07;4.20;;;25.10;97.60;;;;;;5049247;28;20466;-64
2022/06/18 08:59:20;;;;;;;12.57;4.97;;;25.10;98.20;;;;;;5044547;28;20045;-68
2022/06/18 09:02:03;;;;;;;10.70;4.32;;;25.30;97.90;;;;;;5052225;28;20472;-67
2022/06/18 09:04:42;;;;;;;9.20;4.20;;;25.50;97.70;;;;;;5078803;28;20036;-67
2022/06/18 09:07:36;;;;;;;12.15;4.15;;;25.60;97.50;;;;;;5045397;28;20460;-63
2022/06/18 09:10:24;;;;;;;8.43;3.80;;;25.80;96.40;;;;;;5044091;28;20116;-64
2022/06/18 09:13:01;;;;;;;12.98;3.95;;;25.90;95.40;;;;;;5045222;28;20041;-65
2022/06/18 09:15:39;;;;;;;9.35;3.95;;;26.00;95.70;;;;;;5049216;28;20039;-63
2022/06/18 09:18:16;;;;;;;7.93;3.70;;;26.30;95.10;;;;;;5058132;28;20094;-65
2022/06/18 09:20:52;;;;;;;6.90;3.50;;;26.50;94.80;;;;;;5064912;28;20037;-64
2022/06/18 09:23:26;;;;;;;7.55;3.90;;;26.70;94.80;;;;;;5060043;28;20064;-65
2022/06/18 09:25:58;;;;;;;7.03;3.40;;;26.90;94.10;;;;;;5058766;28;20078;-67
2022/06/18 09:28:41;;;;;;;7.95;3.33;;;27.10;94.10;;;;;;5056881;28;20037;-67
2022/06/18 09:31:19;;;;;;;7.70;3.60;;;27.20;93.10;;;;;;5052949;28;20108;-67
2022/06/18 09:33:53;;;;;;;8.32;3.38;;;27.20;92.80;;;;;;5055417;28;20045;-67
2022/06/18 09:36:33;;;;;;;8.25;3.20;;;27.40;93.30;;;;;;5041039;28;20064;-64
2022/06/18 09:38:59;;;;;;;7.25;3.42;;;27.50;93.10;;;;;;5054916;28;20047;-67
2022/06/18 09:41:52;;;;;;;9.45;3.67;;;27.50;92.80;;;;;;5060063;28;20496;-65
2022/06/18 09:44:24;;;;;;;7.50;3.28;;;27.70;91.80;;;;;;5051197;28;20036;-65
2022/06/18 09:47:14;;;;;;;9.82;3.45;;;27.80;92.20;;;;;;5048843;28;20411;-67
2022/06/18 09:49:43;;;;;;;8.00;3.53;;;27.80;91.40;;;;;;5058328;28;20379;-67
2022/06/18 09:52:33;;;;;;;8.63;3.42;;;27.80;91.50;;;;;;5059415;28;20437;-66
2022/06/18 09:55:05;;;;;;;6.13;3.08;;;28.00;90.70;;;;;;5051349;28;20056;-66
2022/06/18 09:57:34;;;;;;;8.95;3.15;;;28.10;91.10;;;;;;5044212;28;20107;-67
2022/06/18 10:00:03;;;;;;;8.55;3.17;;;28.20;90.90;;;;;;5058540;28;20052;-64
2022/06/18 10:02:31;;;;;;;7.40;3.20;;;28.20;90.60;;;;;;5057078;28;20041;-66
2022/06/18 10:07:48;;;;;;;5.78;2.72;;;28.50;90.20;;;;;;5047467;28;20411;-67
2022/06/18 10:10:17;;;;;;;7.03;3.13;;;28.60;89.20;;;;;;5048895;28;20041;-65
2022/06/18 10:12:48;;;;;;;6.80;2.90;;;28.70;88.70;;;;;;5048958;28;20123;-65
2022/06/18 10:15:17;;;;;;;7.45;2.90;;;28.80;87.80;;;;;;5061617;28;20044;-64
2022/06/18 10:18:21;;;;;;;6.95;3.15;;;28.80;86.80;;;;;;5077796;28;20040;-64
2022/06/18 10:20:55;;;;;;;5.63;2.85;;;28.80;85.80;;;;;;5046893;28;20515;-65
2022/06/18 10:23:33;;;;;;;6.95;2.60;;;28.80;86.10;;;;;;5044986;28;20035;-67
2022/06/18 10:26:28;;;;;;;5.93;2.25;;;28.90;85.00;;;;;;5055613;28;20044;-65
2022/06/18 10:29:14;;;;;;;7.13;2.33;;;29.00;84.00;;;;;;5051325;28;20435;-67
2022/06/18 10:31:53;;;;;;;8.02;2.92;;;29.00;84.00;;;;;;5044799;28;20050;-67
2022/06/18 10:34:34;;;;;;;5.82;3.05;;;29.10;83.50;;;;;;5042058;28;20033;-65
2022/06/18 10:37:12;;;;;;;6.40;2.50;;;28.90;81.90;;;;;;5055077;28;20033;-65
2022/06/18 10:39:56;;;;;;;7.25;2.78;;;28.80;82.90;;;;;;5047081;28;20052;-67
2022/06/18 10:42:30;;;;;;;6.05;2.60;;;28.70;82.60;;;;;;5051890;28;20035;-66
2022/06/18 10:45:18;;;;;;;5.95;2.60;;;28.70;82.80;;;;;;5056504;28;20037;-66
2022/06/18 10:47:46;;;;;;;5.18;2.33;;;28.70;81.10;;;;;;5053057;28;20037;-65
2022/06/18 10:50:15;;;;;;;7.03;2.70;;;28.60;82.70;;;;;;5062175;28;20058;-66
2022/06/18 10:52:42;;;;;;;5.13;2.13;;;28.70;83.10;;;;;;5052388;28;20051;-64
2022/06/18 10:55:17;;;;;;;6.38;2.47;;;28.90;83.40;;;;;;5047817;28;20041;-67
2022/06/18 10:57:44;;;;;;;5.28;2.28;;;29.00;82.40;;;;;;5049224;28;20586;-64
2022/06/18 11:00:09;;;;;;;8.65;2.90;;;29.10;82.20;;;;;;5056895;28;20168;-64
2022/06/18 11:02:37;;;;;;;7.80;2.90;;;29.30;81.90;;;;;;5059819;28;20120;-66
2022/06/18 11:05:36;;;;;;;4.95;2.30;;;29.30;81.50;;;;;;5058879;28;20033;-64
2022/06/18 11:08:16;;;;;;;5.28;2.50;;;29.50;81.40;;;;;;5053187;28;20060;-64
2022/06/18 11:10:55;;;;;;;6.65;2.78;;;29.50;81.40;;;;;;5043183;28;20036;-64
2022/06/18 11:13:40;;;;;;;5.80;2.20;;;29.50;79.50;;;;;;5053525;28;20041;-65
2022/06/18 11:16:26;;;;;;;4.65;2.25;;;29.60;79.70;;;;;;5052266;28;20047;-64
2022/06/18 11:19:00;;;;;;;5.68;2.85;;;29.60;80.10;;;;;;5055226;28;20049;-64
2022/06/18 11:21:35;;;;;;;10.10;2.95;;;29.70;78.20;;;;;;5051882;28;20124;-66
2022/06/18 11:24:20;;;;;;;6.72;2.78;;;29.50;78.20;;;;;;5063039;28;20449;-66
2022/06/18 11:26:49;;;;;;;7.15;2.83;;;29.50;78.40;;;;;;5056436;28;20064;-67
2022/06/18 11:29:28;;;;;;;4.95;2.55;;;29.40;78.90;;;;;;5062186;28;20106;-66
2022/06/18 11:31:58;;;;;;;8.25;2.97;;;29.50;78.90;;;;;;5066494;28;20075;-65
2022/06/18 11:34:38;;;;;;;7.72;2.65;;;29.70;78.90;;;;;;5051396;28;20498;-65
2022/06/18 11:37:20;;;;;;;8.18;2.50;;;29.80;78.30;;;;;;5062506;28;20049;-65
2022/06/18 11:40:15;;;;;;;5.18;2.53;;;30.00;78.10;;;;;;5056023;28;20115;-67
2022/06/18 11:43:07;;;;;;;7.72;2.42;;;30.20;77.70;;;;;;5054623;28;20049;-66
2022/06/18 11:45:45;;;;;;;5.45;2.42;;;30.50;77.40;;;;;;5057528;28;20259;-65
2022/06/18 11:48:27;;;;;;;4.18;2.42;;;30.50;76.40;;;;;;5065805;28;20029;-64
2022/06/18 11:51:05;;;;;;;5.10;2.20;;;30.50;75.80;;;;;;5054733;28;20052;-64
2022/06/18 11:53:56;;;;;;;4.78;2.55;;;30.50;76.60;;;;;;5082817;28;20553;-66
2022/06/18 11:56:34;;;;;;;4.93;2.42;;;30.50;74.90;;;;;;5061896;28;20495;-65
2022/06/18 11:59:19;;;;;;;8.27;2.70;;;30.50;75.10;;;;;;5050617;28;20377;-66
2022/06/18 12:01:53;;;;;;;5.53;2.55;;;30.60;74.60;;;;;;5058616;28;20037;-65
2022/06/18 12:04:31;;;;;;;6.35;2.30;;;30.60;74.70;;;;;;5061486;28;20063;-65
2022/06/18 12:07:18;;;;;;;6.32;2.50;;;30.50;74.50;;;;;;5047687;28;20040;-66
2022/06/18 12:09:44;;;;;;;3.35;2.10;;;30.30;74.90;;;;;;5044097;28;20071;-66
2022/06/18 12:12:27;;;;;;;6.22;2.63;;;30.40;75.60;;;;;;5049136;28;20045;-64
2022/06/18 12:15:32;;;;;;;4.97;2.45;;;30.50;75.60;;;;;;5048449;28;20395;-64
2022/06/18 12:18:11;;;;;;;10.40;2.72;;;30.70;74.60;;;;;;5034768;28;20068;-65
2022/06/18 12:20:41;;;;;;;6.40;2.80;;;30.90;75.10;;;;;;5045819;28;20041;-65
2022/06/18 12:23:13;;;;;;;8.57;2.63;;;31.10;73.60;;;;;;5041911;28;20491;-65
2022/06/18 12:25:56;;;;;;;5.95;2.58;;;31.20;73.20;;;;;;5055571;28;20040;-65
2022/06/18 12:28:40;;;;;;;6.70;2.40;;;31.30;72.60;;;;;;5042805;28;20041;-66
2022/06/18 12:31:17;;;;;;;5.68;2.40;;;31.20;72.40;;;;;;5049183;28;20136;-64
2022/06/18 12:34:18;;;;;;;8.35;2.40;;;31.20;72.40;;;;;;5045843;28;20486;-65
2022/06/18 12:37:07;;;;;;;6.22;2.50;;;31.10;71.80;;;;;;5048547;28;20425;-65
2022/06/18 12:39:53;;;;;;;6.18;2.55;;;31.10;71.20;;;;;;5045832;28;20032;-65
2022/06/18 12:42:28;;;;;;;7.47;2.78;;;30.70;71.20;;;;;;5045594;28;20075;-65
2022/06/18 12:44:58;;;;;;;6.40;2.63;;;30.70;72.20;;;;;;5048268;28;20144;-65
2022/06/18 12:47:30;;;;;;;7.35;2.30;;;30.80;72.50;;;;;;5051488;28;20041;-65
2022/06/18 12:50:40;;;;;;;6.82;2.60;;;31.00;72.30;;;;;;5080980;22;20064;-78
2022/06/18 12:53:56;;;;;;;7.85;2.97;;;31.20;71.70;;;;;;4994711;28;20041;-77
2022/06/18 12:56:47;;;;;;;5.65;2.70;;;31.10;69.40;;;;;;4978658;28;20045;-76
2022/06/18 12:59:43;;;;;;;8.18;3.00;;;30.80;70.10;;;;;;5045896;28;20521;-77
2022/06/18 13:02:20;;;;;;;8.98;3.00;;;30.60;70.50;;;;;;5061066;28;20048;-76
2022/06/18 13:05:10;;;;;;;8.18;3.22;;;30.50;70.70;;;;;;5065344;28;20128;-76
2022/06/18 13:08:01;;;;;;;8.40;3.22;;;30.40;70.70;;;;;;5057103;28;20032;-76
2022/06/18 13:11:05;;;;;;;5.47;2.45;;;30.30;71.40;;;;;;5068267;28;20051;-76
2022/06/18 13:13:53;;;;;;;4.82;2.30;;;30.10;71.80;;;;;;5062636;28;20040;-77
2022/06/18 13:16:24;;;;;;;6.00;2.63;;;29.90;72.30;;;;;;5068779;28;20123;-76
2022/06/18 13:18:53;;;;;;;5.72;2.30;;;29.80;73.10;;;;;;5068982;28;20471;-76